Airfield :
LOGIN :

Register | Disclaimer

   EN    FR    IT 

 










Legend :    VFR   Marginal VFR   IFR   Intensive IFR   Very Intensive IFR
Visi :
Ceiling :
>= 8 km
>= 3000ft
5 to 8 km
1000 to 3000 ft
1500m to 5 km
500 to 1000 ft
800 to 1500m
200 to 500 ft
< 800m
< 200 ft
Symbols :   Thunderstorms  Fog  Heavy snow  Heavy precipitations  Wind > 20 kt
SIGMETs :     Misc.  Thunderstorms  Icing  Turbulence  Mountain Waves  Volcanic Ashes






- Airport Elevation : 63 ft
- IATA code : BZM


EHWO - Woensdrecht Airbase

CURRENT METAR :
  • 292134Z AUTO 22009KT 190V250 9999 FEW003 OVC021 13/12 Q1015 WHT

EXPIRED METARs :
  • 292125Z AUTO 22010KT 190V250 9000 BR BKN002 BKN003 OVC005 13/12 Q1015 AMB
  • 292118Z AUTO 22010KT 8000 BR SCT003 BKN004 OVC005 13/12 Q1015 YLO
  • 292111Z AUTO 22011KT 6000 BR FEW003 SCT004 BKN005 13/12 Q1015 YLO
  • 292055Z AUTO 22011KT 190V260 9999 FEW006 SCT008 BKN011 13/12 Q1015 GRN
  • 292025Z AUTO 22009KT 180V260 9999 FEW007 BKN010 BKN014 13/12 Q1015 GRN
  • 291955Z AUTO 22011KT 200V270 9999 FEW009 SCT011 BKN014 13/12 Q1014 GRN
  • 291935Z AUTO 22012KT 200V260 9999 FEW004 SCT006 BKN007 12/12 Q1014 YLO
  • 291925Z AUTO 22013KT 190V250 4900 DZ SCT005 BKN006 OVC008 12/12 Q1014 YLO
  • 291917Z AUTO 23012KT 200V260 4000 -RADZ SCT006 BKN007 OVC010 12/12 Q1014 YLO
  • 291903Z AUTO 22012KT 190V260 9999 SCT006 BKN007 OVC008 12/11 Q1014 YLO
  • 291859Z AUTO 22012KT 190V260 9999 FEW005 BKN007 BKN008 12/11 Q1014 GRN
  • 291847Z AUTO 22012KT 190V260 3300 -RA SCT007 BKN008 OVC010 12/11 Q1014 YLO

TAF TAF EHWO
Valid from the 29 at 10:00 until the 29 at 22:00 UTC


290925Z 2910/2922 24007KT 9999 SCT028
BECMG 2914/2916 21014G25KT SCT015 BKN020
BECMG 2916/2918 4000 -RADZ SCT008 BKN012
TEMPO 2917/2922 2500 DZ BKN008 BKN010



MET'MAP, your aeronautical weather chart ! - Copyright ORBIFLY December 2007 - Disclaimer

ORBIFLY MET'MAP TEAM :

Programming & Development : Alexandra Zaïnal
Concept & original design : Baudouin d'Aumeries
Assistance for programming : Marc-Olivier Méhu
Technical & hardware support : Manuel Goepfert

Contact : metmap@orbifly.com




SOURCES & CREDITS :

   NOAA